Nashua, IA (50658)

12:24 PM CST on December 08, 2016 (GMT -0600)
Charles City Municipal | | Change Station

Elev 1125 ft 43.07 °N, 92.61 °W | Updated 9 minutes ago

Snow
Snow
21 °F
Feels Like 5 °F
N
23
Wind Variable Wind from NW
Gusts 30 mph

Today
High -- | Low -- °F
--% Chance of Precip.
Yesterday
High -- | Low -- °F
Precip. -- in
Pressure 30.39 in
Visibility 8.0 miles
Clouds Overcast 2000 ft
Windchill 5 °F
Dew Point 14 °F
Humidity 74%
Rainfall 0.00 in
Snow Depth Not available.
7:29 AM 4:35 PM
Waxing Gibbous, 65% visible
METAR KCCY 081815Z AUTO 31020G26KT 8SM -SN OVC020 M06/M10 A3039 RMK AO2
Pressure 30.39 in
Visibility 8.0 miles
Clouds Overcast 2000 ft
Windchill 5 °F
Dew Point 14 °F
Humidity 74%
Rainfall 0.00 in
Snow Depth Not available.
7:29 AM 4:35 PM
Waxing Gibbous, 65% visible
METAR KCCY 081815Z AUTO 31020G26KT 8SM -SN OVC020 M06/M10 A3039 RMK AO2

10-Day Weather Forecast

Almanac

Astronomy

Dec. 08, 2016 Rise Set
Actual Time
Civil Twilight
Nautical Twilight
Astronomical Twilight
Moon
Length of Visible Light
Length of Day
Tomorrow will be .
, % of the Moon is Illuminated

Today's Extremes

State Highs State Lows

Community

WunderPhotos

Upload Photos

1,956,277 photos uploaded!

WunderBlog® & News

Nearby

Air Quality

  Air Quality AQ Index Pollutant
Not available.

Snow Depth

Station Depth Elevation

Earthquake Activity

City Distance Mag. Time & Date
Minimum magnitude displayed is 2.5.

Coastal Water Temperatures

Place Temperature

Stations

Nearby Weather Stations

Station Location Temp. Windchill Dew Point Humidity Wind Precip. Elev Updated Type
                   

Watches & Warnings

There are currently no watches in effect.